createdAt,value
2023-04-23T00:01:00.596Z,18.50
2023-04-23T00:03:29.151Z,18.50
2023-04-23T00:05:57.708Z,18.50
2023-04-23T00:08:25.854Z,18.50
2023-04-23T00:10:56.011Z,18.40
2023-04-23T00:13:24.301Z,18.40
2023-04-23T00:15:52.366Z,18.50
2023-04-23T00:18:20.643Z,18.50
2023-04-23T00:20:48.529Z,18.60
2023-04-23T00:23:16.438Z,18.60
2023-04-23T00:25:44.296Z,18.60
2023-04-23T00:28:13.551Z,18.60
2023-04-23T00:30:42.500Z,18.60
2023-04-23T00:33:10.506Z,18.60
2023-04-23T00:35:39.086Z,18.60
2023-04-23T00:38:07.079Z,18.50
2023-04-23T00:40:35.020Z,18.50
2023-04-23T00:43:03.075Z,18.50
2023-04-23T00:45:32.440Z,18.50
2023-04-23T00:48:00.506Z,18.40
2023-04-23T00:50:28.498Z,18.40
2023-04-23T00:52:56.463Z,18.40
2023-04-23T00:55:24.809Z,18.40
2023-04-23T00:57:54.152Z,18.40
2023-04-23T01:00:22.091Z,18.50
2023-04-23T01:02:53.073Z,18.60
2023-04-23T01:05:23.294Z,18.60
2023-04-23T01:07:51.224Z,18.60
2023-04-23T01:10:19.193Z,18.60
2023-04-23T01:12:47.528Z,18.50
2023-04-23T01:15:15.486Z,18.60
2023-04-23T01:17:43.553Z,18.50
2023-04-23T01:20:13.078Z,18.50
2023-04-23T01:22:42.394Z,18.40
2023-04-23T01:25:11.200Z,18.40
2023-04-23T01:27:39.283Z,18.40
2023-04-23T01:30:08.675Z,18.50
2023-04-23T01:32:36.695Z,18.40
2023-04-23T01:35:05.511Z,18.40
2023-04-23T01:37:33.428Z,18.40
2023-04-23T01:40:02.729Z,18.40
2023-04-23T01:42:30.711Z,18.50
2023-04-23T01:44:58.591Z,18.60
2023-04-23T01:47:26.504Z,18.60
2023-04-23T01:49:54.457Z,18.60
2023-04-23T01:52:22.388Z,18.60
2023-04-23T01:54:50.478Z,18.60
2023-04-23T01:57:23.920Z,18.60
2023-04-23T01:59:51.916Z,18.60
2023-04-23T02:02:21.095Z,18.50
2023-04-23T02:04:49.734Z,18.50
2023-04-23T02:07:17.626Z,18.50
2023-04-23T02:09:45.872Z,18.50
2023-04-23T02:12:13.965Z,18.50
2023-04-23T02:14:43.620Z,18.50
2023-04-23T02:17:14.265Z,18.40
2023-04-23T02:19:42.151Z,18.40
2023-04-23T02:22:10.308Z,18.40
2023-04-23T02:24:38.860Z,18.40
2023-04-23T02:27:08.657Z,18.40
2023-04-23T02:29:36.813Z,18.40
2023-04-23T02:32:06.736Z,18.40
2023-04-23T02:34:34.636Z,18.40
2023-04-23T02:37:04.867Z,18.40
2023-04-23T02:39:32.814Z,18.50
2023-04-23T02:42:00.786Z,18.60
2023-04-23T02:44:28.760Z,18.70
2023-04-23T02:46:57.183Z,18.70
2023-04-23T02:49:26.702Z,18.70
2023-04-23T02:51:54.665Z,18.70
2023-04-23T02:54:26.225Z,18.60
2023-04-23T02:56:54.110Z,18.60
2023-04-23T02:59:22.030Z,18.60
2023-04-23T03:01:50.296Z,18.50
2023-04-23T03:04:18.448Z,18.50
2023-04-23T03:06:47.927Z,18.50
2023-04-23T03:09:16.706Z,18.40
2023-04-23T03:11:44.671Z,18.40
2023-04-23T03:14:14.933Z,18.40
2023-04-23T03:16:42.882Z,18.40
2023-04-23T03:19:10.861Z,18.40
2023-04-23T03:21:38.732Z,18.40
2023-04-23T03:24:08.285Z,18.50
2023-04-23T03:26:36.200Z,18.50
2023-04-23T03:29:06.221Z,18.50
2023-04-23T03:31:34.511Z,18.50
2023-04-23T03:34:03.194Z,18.40
2023-04-23T03:36:34.749Z,18.40
2023-04-23T03:39:03.300Z,18.50
2023-04-23T03:41:44.398Z,18.40
2023-04-23T03:44:13.890Z,18.40
2023-04-23T03:46:44.736Z,18.40
2023-04-23T03:49:13.072Z,18.40
2023-04-23T03:51:41.127Z,18.40
2023-04-23T03:54:11.887Z,18.50
2023-04-23T03:56:47.943Z,18.60
2023-04-23T03:59:28.536Z,18.70
2023-04-23T04:01:59.783Z,18.60
2023-04-23T04:04:28.331Z,18.70
2023-04-23T04:06:57.111Z,18.60
2023-04-23T04:09:28.506Z,18.70
2023-04-23T04:11:57.791Z,18.60
2023-04-23T04:14:25.730Z,18.50
2023-04-23T04:16:53.644Z,18.50
2023-04-23T04:19:21.698Z,18.50
2023-04-23T04:21:49.621Z,18.50
2023-04-23T04:24:18.178Z,18.50
2023-04-23T04:26:46.145Z,18.50
2023-04-23T04:29:15.821Z,18.40
2023-04-23T04:31:43.718Z,18.40
2023-04-23T04:34:14.410Z,18.40
2023-04-23T04:36:42.722Z,18.50
2023-04-23T04:39:10.700Z,18.60
2023-04-23T04:41:38.604Z,18.60
2023-04-23T04:44:07.199Z,18.60
2023-04-23T04:46:40.374Z,18.60
2023-04-23T04:49:09.232Z,18.60
2023-04-23T04:51:37.879Z,18.60
2023-04-23T04:54:06.249Z,18.50
2023-04-23T04:56:34.460Z,18.50
2023-04-23T04:59:02.500Z,18.50
2023-04-23T05:01:31.094Z,18.40
2023-04-23T05:04:00.694Z,18.40
2023-04-23T05:06:29.604Z,18.50
2023-04-23T05:08:57.459Z,18.40
2023-04-23T05:11:25.350Z,18.40
2023-04-23T05:13:53.236Z,18.40
2023-04-23T05:16:21.217Z,18.40
2023-04-23T05:18:49.133Z,18.40
2023-04-23T05:21:19.391Z,18.40
2023-04-23T05:23:47.303Z,18.40
2023-04-23T05:26:15.178Z,18.40
2023-04-23T05:28:43.086Z,18.40
2023-04-23T05:31:11.328Z,18.50
2023-04-23T05:33:49.356Z,18.50
2023-04-23T05:36:19.912Z,18.70
2023-04-23T05:38:48.102Z,18.70
2023-04-23T05:41:16.281Z,18.70
2023-04-23T05:43:44.312Z,18.60
2023-04-23T05:46:12.194Z,18.60
2023-04-23T05:48:40.172Z,18.50
2023-04-23T05:51:08.139Z,18.50
2023-04-23T05:53:37.778Z,18.50
2023-04-23T05:56:06.081Z,18.40
2023-04-23T05:58:33.986Z,18.40
2023-04-23T06:01:02.947Z,18.40
2023-04-23T06:03:31.074Z,18.50
2023-04-23T06:05:59.200Z,18.60
2023-04-23T06:08:27.140Z,18.70
2023-04-23T06:10:56.774Z,18.90
2023-04-23T06:13:24.728Z,19.10
2023-04-23T06:15:54.367Z,19.20
2023-04-23T06:18:22.281Z,19.40
2023-04-23T06:20:51.490Z,19.60
2023-04-23T06:23:19.441Z,19.70
2023-04-23T06:25:47.333Z,19.80
2023-04-23T06:28:16.825Z,19.90
2023-04-23T06:31:05.605Z,19.90
2023-04-23T06:33:34.309Z,19.80
2023-04-23T06:36:02.237Z,19.60
2023-04-23T06:38:30.135Z,19.40
2023-04-23T06:40:58.763Z,19.30
2023-04-23T06:43:28.012Z,19.20
2023-04-23T06:46:18.841Z,19.20
2023-04-23T06:48:46.793Z,19.00
2023-04-23T06:51:14.757Z,18.90
2023-04-23T06:53:42.681Z,18.80
2023-04-23T06:56:10.553Z,18.80
2023-04-23T06:58:42.444Z,18.70
2023-04-23T07:01:17.811Z,18.70
2023-04-23T07:03:49.038Z,18.60
2023-04-23T07:06:16.998Z,18.60
2023-04-23T07:08:44.978Z,18.60
2023-04-23T07:11:12.885Z,18.70
2023-04-23T07:13:42.228Z,18.80
2023-04-23T07:16:10.191Z,18.80
2023-04-23T07:18:38.128Z,18.80
2023-04-23T07:21:06.160Z,18.80
2023-04-23T07:23:34.088Z,18.70
2023-04-23T07:26:02.005Z,18.70
2023-04-23T07:28:29.935Z,18.70
2023-04-23T07:30:59.218Z,18.70
2023-04-23T07:33:27.122Z,18.60
2023-04-23T07:35:54.999Z,18.60
2023-04-23T07:38:22.881Z,18.50
2023-04-23T07:40:50.783Z,18.60
2023-04-23T07:43:18.705Z,18.50
2023-04-23T07:45:46.631Z,18.50
2023-04-23T07:48:16.220Z,18.40
2023-04-23T07:50:44.106Z,18.50
2023-04-23T07:53:12.038Z,18.40
2023-04-23T07:55:39.911Z,18.40
2023-04-23T07:58:07.759Z,18.40
2023-04-23T08:00:35.711Z,18.40
2023-04-23T08:03:04.825Z,18.40
2023-04-23T08:05:35.398Z,18.50
2023-04-23T08:08:03.601Z,18.60
2023-04-23T08:10:31.715Z,18.70
2023-04-23T08:12:59.623Z,18.70
2023-04-23T08:15:27.529Z,18.60
2023-04-23T08:17:55.505Z,18.60
2023-04-23T08:20:25.261Z,18.60
2023-04-23T08:22:55.628Z,18.60
2023-04-23T08:25:25.824Z,18.60
2023-04-23T08:27:53.706Z,18.50
2023-04-23T08:30:21.652Z,18.50
2023-04-23T08:32:50.976Z,18.50
2023-04-23T08:35:19.139Z,18.50
2023-04-23T08:37:47.145Z,18.50
2023-04-23T08:40:19.036Z,18.40
2023-04-23T08:42:50.300Z,18.40
2023-04-23T08:45:21.115Z,18.40
2023-04-23T08:47:49.141Z,18.40
2023-04-23T08:50:18.522Z,18.40
2023-04-23T08:52:48.487Z,18.40
2023-04-23T08:55:18.796Z,18.40
2023-04-23T08:57:47.231Z,18.40
2023-04-23T09:00:17.200Z,18.40
2023-04-23T09:02:46.008Z,18.50
2023-04-23T09:05:14.299Z,18.60
2023-04-23T09:07:42.380Z,18.60
2023-04-23T09:10:11.333Z,18.60
2023-04-23T09:12:45.168Z,18.60
2023-04-23T09:15:13.873Z,18.60
2023-04-23T09:17:45.060Z,18.60
2023-04-23T09:20:13.438Z,18.60
2023-04-23T09:22:47.121Z,18.50
2023-04-23T09:25:16.417Z,18.50
2023-04-23T09:27:46.093Z,18.50
2023-04-23T09:30:14.770Z,18.40
2023-04-23T09:32:46.944Z,18.40
2023-04-23T09:35:19.806Z,18.40
2023-04-23T09:37:49.452Z,18.40
2023-04-23T09:40:18.068Z,18.40
2023-04-23T09:42:50.654Z,18.40
2023-04-23T09:45:18.768Z,18.40
2023-04-23T09:47:50.333Z,18.40
2023-04-23T09:50:18.226Z,18.40
2023-04-23T09:52:46.106Z,18.40
2023-04-23T09:55:14.035Z,18.40
2023-04-23T09:57:42.272Z,18.40
2023-04-23T10:00:20.061Z,18.50
2023-04-23T10:02:51.290Z,18.60
2023-04-23T10:05:25.013Z,18.60
2023-04-23T10:07:57.481Z,18.60
2023-04-23T10:10:25.652Z,18.60
2023-04-23T10:12:55.555Z,18.60
2023-04-23T10:15:28.427Z,18.60
2023-04-23T10:17:56.553Z,18.60
2023-04-23T10:20:24.500Z,18.50
2023-04-23T10:22:52.413Z,18.50
2023-04-23T10:25:20.365Z,18.50
2023-04-23T10:27:53.135Z,18.50
2023-04-23T10:30:22.917Z,18.50
2023-04-23T10:32:52.457Z,18.40
2023-04-23T10:35:20.432Z,18.40
2023-04-23T10:37:48.784Z,18.40
2023-04-23T10:40:21.824Z,18.50
2023-04-23T10:42:49.781Z,18.40
2023-04-23T10:47:49.981Z,18.40
2023-04-23T10:50:24.072Z,18.40
2023-04-23T10:52:53.615Z,18.50
2023-04-23T10:55:22.515Z,18.50
2023-04-23T10:58:00.818Z,18.60
2023-04-23T11:00:29.950Z,18.70
2023-04-23T11:02:57.921Z,18.70
2023-04-23T11:05:29.189Z,18.70
2023-04-23T11:08:18.875Z,18.70
2023-04-23T11:10:57.183Z,18.70
2023-04-23T11:13:27.918Z,18.60
2023-04-23T11:16:15.473Z,18.60
2023-04-23T11:18:59.701Z,18.50
2023-04-23T11:22:03.167Z,18.50
2023-04-23T11:24:37.003Z,18.50
2023-04-23T11:27:06.497Z,18.50
2023-04-23T11:29:34.777Z,18.50
2023-04-23T11:32:03.851Z,18.40
2023-04-23T11:34:33.966Z,18.40
2023-04-23T11:37:04.896Z,18.50
2023-04-23T11:39:33.001Z,18.60
2023-04-23T11:42:03.101Z,18.60
2023-04-23T11:44:31.665Z,18.60
2023-04-23T11:47:01.782Z,18.60
2023-04-23T11:49:29.749Z,18.60
2023-04-23T11:52:00.216Z,18.60
2023-04-23T11:54:30.489Z,18.60
2023-04-23T11:56:59.749Z,18.50
2023-04-23T11:59:27.714Z,18.50
2023-04-23T12:01:56.482Z,18.50
2023-04-23T12:04:25.880Z,18.50
2023-04-23T12:06:55.211Z,18.50
2023-04-23T12:09:23.880Z,18.50
2023-04-23T12:11:53.145Z,18.50
2023-04-23T12:14:23.937Z,18.40
2023-04-23T12:16:53.005Z,18.40
2023-04-23T12:19:21.968Z,18.40
2023-04-23T12:21:54.656Z,18.40
2023-04-23T12:24:23.708Z,18.40
2023-04-23T12:26:54.485Z,18.40
2023-04-23T12:29:23.137Z,18.40
2023-04-23T12:31:52.113Z,18.40
2023-04-23T12:34:20.421Z,18.50
2023-04-23T12:36:49.791Z,18.60
2023-04-23T12:39:29.358Z,18.70
2023-04-23T12:42:02.417Z,18.70
2023-04-23T12:44:30.419Z,18.70
2023-04-23T12:46:59.361Z,18.70
2023-04-23T12:49:30.126Z,18.70
2023-04-23T12:52:01.049Z,18.70
2023-04-23T12:54:32.698Z,18.60
2023-04-23T12:57:02.753Z,18.60
2023-04-23T12:59:30.788Z,18.60
2023-04-23T13:02:01.827Z,18.60
2023-04-23T13:04:30.021Z,18.60
2023-04-23T13:06:57.966Z,18.50
2023-04-23T13:09:27.812Z,18.50
2023-04-23T13:11:55.975Z,18.50
2023-04-23T13:14:25.278Z,18.50
2023-04-23T13:16:53.648Z,18.60
2023-04-23T13:19:21.646Z,18.60
2023-04-23T13:21:49.543Z,18.70
2023-04-23T13:24:17.443Z,18.70
2023-04-23T13:26:45.322Z,18.70
2023-04-23T13:29:16.096Z,18.70
2023-04-23T13:31:45.517Z,18.70
2023-04-23T13:34:13.470Z,18.70
2023-04-23T13:36:42.116Z,18.60
2023-04-23T13:39:12.006Z,18.60
2023-04-23T13:41:39.973Z,18.50
2023-04-23T13:44:10.519Z,18.50
2023-04-23T13:46:40.033Z,18.50
2023-04-23T13:49:09.371Z,18.50
2023-04-23T13:51:37.319Z,18.50
2023-04-23T13:54:05.383Z,18.40
2023-04-23T13:56:33.364Z,18.40
2023-04-23T13:59:17.504Z,18.50
2023-04-23T14:01:47.016Z,18.50
2023-04-23T14:04:16.614Z,18.50
2023-04-23T14:06:44.551Z,18.40
2023-04-23T14:09:12.429Z,18.40
2023-04-23T14:11:41.413Z,18.50
2023-04-23T14:14:09.530Z,18.60
2023-04-23T14:16:40.392Z,18.60
2023-04-23T14:19:08.288Z,18.70
2023-04-23T14:21:37.933Z,18.70
2023-04-23T14:24:09.865Z,18.60
2023-04-23T14:29:11.007Z,18.70
2023-04-23T14:31:39.250Z,18.70
2023-04-23T14:34:07.209Z,18.60
2023-04-23T14:36:35.107Z,18.60
2023-04-23T14:39:05.655Z,18.60
2023-04-23T14:41:33.603Z,18.60
2023-04-23T14:44:02.106Z,18.50
2023-04-23T14:46:30.042Z,18.50
2023-04-23T14:48:57.964Z,18.50
2023-04-23T14:51:27.269Z,18.50
2023-04-23T14:53:56.684Z,18.50
2023-04-23T14:56:28.471Z,18.60
2023-04-23T14:58:56.411Z,18.70
2023-04-23T15:01:27.260Z,18.70
2023-04-23T15:03:55.331Z,18.60
2023-04-23T15:06:23.370Z,18.60
2023-04-23T15:08:51.278Z,18.60
2023-04-23T15:11:19.230Z,18.60
2023-04-23T15:13:50.922Z,18.60
2023-04-23T15:16:44.186Z,18.60
2023-04-23T15:19:14.641Z,18.50
2023-04-23T15:21:43.016Z,18.50
2023-04-23T15:24:11.013Z,18.50
2023-04-23T15:26:41.256Z,18.50
2023-04-23T15:29:10.617Z,18.50
2023-04-23T15:31:38.980Z,18.50
2023-04-23T15:34:08.976Z,18.50
2023-04-23T15:36:37.883Z,18.50
2023-04-23T15:39:07.049Z,18.60
2023-04-23T15:41:37.508Z,18.70
2023-04-23T15:44:10.748Z,18.70
2023-04-23T15:46:38.827Z,18.60
2023-04-23T15:49:06.772Z,18.60
2023-04-23T15:51:34.688Z,18.70
2023-04-23T15:54:04.146Z,18.60
2023-04-23T15:56:32.077Z,18.60
2023-04-23T15:59:00.006Z,18.60
2023-04-23T16:01:29.357Z,18.50
2023-04-23T16:06:28.612Z,18.50
2023-04-23T16:08:56.602Z,18.50
2023-04-23T16:11:28.687Z,18.60
2023-04-23T16:13:56.977Z,18.50
2023-04-23T16:16:25.080Z,18.50
2023-04-23T16:18:56.325Z,18.60
2023-04-23T16:21:28.023Z,18.70
2023-04-23T16:23:56.049Z,18.80
2023-04-23T16:26:23.978Z,18.80
2023-04-23T16:29:05.526Z,18.80
2023-04-23T16:31:39.782Z,18.80
2023-04-23T16:34:09.372Z,18.80
2023-04-23T16:36:37.357Z,18.70
2023-04-23T16:39:05.470Z,18.70
2023-04-23T16:41:33.554Z,18.70
2023-04-23T16:44:03.007Z,18.70
2023-04-23T16:46:31.708Z,18.70
2023-04-23T16:48:59.986Z,18.60
2023-04-23T16:51:29.602Z,18.60
2023-04-23T16:53:57.746Z,18.60
2023-04-23T16:56:25.735Z,18.60
2023-04-23T16:58:53.711Z,18.60
2023-04-23T17:01:21.705Z,18.60
2023-04-23T17:03:49.908Z,18.60
2023-04-23T17:06:25.816Z,18.60
2023-04-23T17:08:55.151Z,18.60
2023-04-23T17:11:24.704Z,18.60
2023-04-23T17:13:52.667Z,18.60
2023-04-23T17:16:20.747Z,18.70
2023-04-23T17:18:48.772Z,18.80
2023-04-23T17:21:16.819Z,18.90
2023-04-23T17:23:44.833Z,18.90
2023-04-23T17:26:14.195Z,18.80
2023-04-23T17:28:42.135Z,18.80
2023-04-23T17:31:10.233Z,18.80
2023-04-23T17:33:38.683Z,18.80
2023-04-23T17:36:06.757Z,18.70
2023-04-23T17:38:34.672Z,18.70
2023-04-23T17:41:03.360Z,18.70
2023-04-23T17:43:34.825Z,18.70
2023-04-23T17:46:03.423Z,18.70
2023-04-23T17:48:31.677Z,18.70
2023-04-23T17:51:01.451Z,18.60
2023-04-23T17:53:31.631Z,18.60
2023-04-23T17:56:02.841Z,18.60
2023-04-23T17:58:32.404Z,18.70
2023-04-23T18:01:00.393Z,18.60
2023-04-23T18:03:30.079Z,18.60
2023-04-23T18:05:58.260Z,18.60
2023-04-23T18:08:26.303Z,18.60
2023-04-23T18:10:54.429Z,18.70
2023-04-23T18:13:22.414Z,18.80
2023-04-23T18:15:51.740Z,18.90
2023-04-23T18:18:21.547Z,18.90
2023-04-23T18:20:51.841Z,18.90
2023-04-23T18:23:20.644Z,18.80
2023-04-23T18:25:48.601Z,18.90
2023-04-23T18:28:16.565Z,18.80
2023-04-23T18:30:44.591Z,18.80
2023-04-23T18:33:31.636Z,18.70
2023-04-23T18:36:03.865Z,18.70
2023-04-23T18:38:32.875Z,18.70
2023-04-23T18:41:02.790Z,18.70
2023-04-23T18:43:31.712Z,18.70
2023-04-23T18:45:59.727Z,18.70
2023-04-23T18:48:53.568Z,18.60
2023-04-23T18:51:26.462Z,18.70
2023-04-23T18:53:54.452Z,18.70
2023-04-23T18:56:22.397Z,18.90
2023-04-23T18:58:50.400Z,18.90
2023-04-23T19:01:18.773Z,18.90
2023-04-23T19:03:46.898Z,18.80
2023-04-23T19:06:16.396Z,18.90
2023-04-23T19:08:47.028Z,18.80
2023-04-23T19:11:14.978Z,18.80
2023-04-23T19:13:42.907Z,18.80
2023-04-23T19:16:11.045Z,18.70
2023-04-23T19:18:39.056Z,18.70
2023-04-23T19:21:07.057Z,18.70
2023-04-23T19:23:36.436Z,18.70
2023-04-23T19:26:04.444Z,18.70
2023-04-23T19:28:32.417Z,18.70
2023-04-23T19:31:00.562Z,18.60
2023-04-23T19:33:28.616Z,18.70
2023-04-23T19:35:56.622Z,18.70
2023-04-23T19:38:24.652Z,18.70
2023-04-23T19:40:53.959Z,18.60
2023-04-23T19:43:22.074Z,18.60
2023-04-23T19:45:50.134Z,18.60
2023-04-23T19:48:18.247Z,18.70
2023-04-23T19:50:46.354Z,18.80
2023-04-23T19:53:14.655Z,18.90
2023-04-23T19:55:42.932Z,18.90
2023-04-23T19:58:12.791Z,18.90
2023-04-23T20:00:41.798Z,18.90
2023-04-23T20:03:10.168Z,18.90
2023-04-23T20:05:38.436Z,18.90
2023-04-23T20:08:14.473Z,18.80
2023-04-23T20:10:42.551Z,18.80
2023-04-23T20:13:14.511Z,18.70
2023-04-23T20:15:42.673Z,18.70
2023-04-23T20:18:10.925Z,18.70
2023-04-23T20:20:40.036Z,18.70
2023-04-23T20:23:08.090Z,18.70
2023-04-23T20:25:37.594Z,18.60
2023-04-23T20:28:08.188Z,18.60
2023-04-23T20:30:39.099Z,18.60
2023-04-23T20:33:07.170Z,18.70
2023-04-23T20:35:37.461Z,18.70
2023-04-23T20:38:05.390Z,18.60
2023-04-23T20:40:34.542Z,18.60
2023-04-23T20:43:07.103Z,18.70
2023-04-23T20:45:36.117Z,18.70
2023-04-23T20:48:05.743Z,18.80
2023-04-23T20:50:33.942Z,18.90
2023-04-23T20:53:01.929Z,18.80
2023-04-23T20:55:29.937Z,18.80
2023-04-23T20:57:57.942Z,18.80
2023-04-23T21:00:25.956Z,18.80
2023-04-23T21:02:54.437Z,18.80
2023-04-23T21:05:24.064Z,18.70
2023-04-23T21:07:54.245Z,18.70
2023-04-23T21:10:22.248Z,18.70
2023-04-23T21:12:50.372Z,18.70
2023-04-23T21:15:18.235Z,18.70
2023-04-23T21:17:46.237Z,18.70
2023-04-23T21:20:14.546Z,18.60
2023-04-23T21:22:43.902Z,18.60
2023-04-23T21:25:14.206Z,18.60
2023-04-23T21:27:45.919Z,18.70
2023-04-23T21:30:21.739Z,18.80
2023-04-23T21:32:51.951Z,18.90
2023-04-23T21:35:21.530Z,18.90
2023-04-23T21:37:53.339Z,18.90
2023-04-23T21:40:21.289Z,18.90
2023-04-23T21:42:50.057Z,18.90
2023-04-23T21:45:18.153Z,18.80
2023-04-23T21:47:46.112Z,18.80
2023-04-23T21:50:14.109Z,18.70
2023-04-23T21:52:43.154Z,18.70
2023-04-23T21:55:13.365Z,18.70
2023-04-23T21:57:41.335Z,18.70
2023-04-23T22:00:13.753Z,18.70
2023-04-23T22:02:42.253Z,18.70
2023-04-23T22:05:11.013Z,18.60
2023-04-23T22:07:41.378Z,18.70
2023-04-23T22:10:11.339Z,18.70
2023-04-23T22:12:41.110Z,18.80
2023-04-23T22:15:13.662Z,18.80
2023-04-23T22:17:43.298Z,18.80
2023-04-23T22:20:12.414Z,18.80
2023-04-23T22:22:41.148Z,18.80
2023-04-23T22:25:10.345Z,18.80
2023-04-23T22:27:39.984Z,18.70
2023-04-23T22:30:09.205Z,18.70
2023-04-23T22:32:39.808Z,18.70
2023-04-23T22:35:08.432Z,18.60
2023-04-23T22:37:39.489Z,18.70
2023-04-23T22:40:11.485Z,18.70
2023-04-23T22:42:40.766Z,18.60
2023-04-23T22:45:09.331Z,18.60
2023-04-23T22:47:37.537Z,18.60
2023-04-23T22:50:06.246Z,18.60
2023-04-23T22:52:34.193Z,18.60
2023-04-23T22:55:02.222Z,18.60
2023-04-23T22:57:30.642Z,18.60
2023-04-23T22:59:59.915Z,18.60
2023-04-23T23:02:27.919Z,18.60
2023-04-23T23:04:55.981Z,18.60
2023-04-23T23:07:23.956Z,18.70
2023-04-23T23:09:51.968Z,18.90
2023-04-23T23:12:19.883Z,18.90
2023-04-23T23:14:47.948Z,18.90
2023-04-23T23:17:17.244Z,18.90
2023-04-23T23:19:45.379Z,18.90
2023-04-23T23:22:13.478Z,18.90
2023-04-23T23:24:41.425Z,18.80
2023-04-23T23:27:09.414Z,18.70
2023-04-23T23:29:40.282Z,18.70
2023-04-23T23:32:08.567Z,18.70
2023-04-23T23:34:38.065Z,18.70
2023-04-23T23:37:05.999Z,18.70
2023-04-23T23:39:34.030Z,18.60
2023-04-23T23:42:02.708Z,18.60
2023-04-23T23:44:30.609Z,18.60
2023-04-23T23:46:58.662Z,18.60
2023-04-23T23:49:26.722Z,18.60
2023-04-23T23:51:56.407Z,18.60
2023-04-23T23:54:26.290Z,18.60
2023-04-23T23:56:55.552Z,18.60
2023-04-23T23:59:23.531Z,18.60
